Time;durP1;ratioP1;P1;durP2;ratioP2;P2;SDS_P1;SDS_P2;PMS_P1;PMS_P2;Temp;Humidity;BMP_temperature;BMP_pressure;BME280_temperature;BME280_humidity;BME280_pressure;Samples;Min_cycle;Max_cycle;Signal;HPM_P1;HPM_P2
2023/12/07 00:00:22;;;;;;;;;;;;;;;29.42;68.25;101034.38;5060515;28;70069;-35
2023/12/07 00:02:52;;;;;;;;;;;;;;;29.44;68.38;101029.59;5066739;28;66423;-36
2023/12/07 00:05:21;;;;;;;;;;;;;;;29.49;69.11;101029.81;5077207;27;69863;-35
2023/12/07 00:07:51;;;;;;;;;;;;;;;29.52;69.58;101034.81;5068984;28;65577;-36
2023/12/07 00:10:20;;;;;;;;;;;;;;;29.53;69.20;101033.75;5061522;28;69835;-35
2023/12/07 00:12:50;;;;;;;;;;;;;;;29.54;69.48;101048.94;5060795;28;67215;-35
2023/12/07 00:15:20;;;;;;;;;;;;;;;29.59;69.27;101049.16;5063838;27;70391;-35
2023/12/07 00:17:50;;;;;;;;;;;;;;;29.58;69.89;101056.41;5079602;28;66951;-36
2023/12/07 00:20:19;;;;;;;;;;;;;;;29.60;69.83;101054.34;5077834;27;70352;-35
2023/12/07 00:22:49;;;;;;;;;;;;;;;29.61;69.61;101060.59;5061241;28;66686;-35
2023/12/07 00:25:18;;;;;;;;;;;;;;;29.62;69.68;101067.69;5072589;27;70386;-36
2023/12/07 00:27:48;;;;;;;;;;;;;;;29.65;70.40;101066.47;5079234;27;66446;-36
2023/12/07 00:30:18;;;;;;;;;;;;;;;29.66;69.78;101071.63;5063863;28;69875;-34
2023/12/07 00:32:48;;;;;;;;;;;;;;;29.66;69.78;101079.75;5076994;28;66296;-36
2023/12/07 00:35:21;;;;;;;;;;;;;;;29.68;69.90;101088.50;5084155;28;70145;-35
2023/12/07 00:37:51;;;;;;;;;;;;;;;29.69;69.82;101082.03;5082575;27;66992;-36
2023/12/07 00:40:21;;;;;;;;;;;;;;;29.73;69.67;101091.41;5067003;28;70076;-35
2023/12/07 00:42:50;;;;;;;;;;;;;;;29.76;70.05;101092.88;5078549;27;66759;-36
2023/12/07 00:45:20;;;;;;;;;;;;;;;29.78;70.66;101105.16;5063770;28;69853;-36
2023/12/07 00:47:50;;;;;;;;;;;;;;;29.80;69.78;101102.22;5081589;28;65596;-36
2023/12/07 00:50:19;;;;;;;;;;;;;;;29.81;70.17;101114.69;5083927;27;69092;-36
2023/12/07 00:52:50;;;;;;;;;;;;;;;29.82;70.16;101109.09;5079285;28;66525;-36
2023/12/07 00:55:19;;;;;;;;;;;;;;;29.83;68.96;101116.16;5082445;27;70379;-35
2023/12/07 00:57:49;;;;;;;;;;;;;;;29.84;67.52;101131.34;5064262;27;68189;-35
2023/12/07 01:00:18;;;;;;;;;;;;;;;29.86;66.43;101130.31;5064747;28;69440;-34
2023/12/07 01:02:48;;;;;;;;;;;;;;;29.90;65.51;101136.97;5062393;28;65553;-35
2023/12/07 01:05:18;;;;;;;;;;;;;;;29.91;65.47;101136.75;5063603;28;69853;-35
2023/12/07 01:07:48;;;;;;;;;;;;;;;29.93;65.27;101148.22;5066009;28;66282;-35
2023/12/07 01:10:17;;;;;;;;;;;;;;;29.95;64.98;101143.44;5064535;28;70590;-35
2023/12/07 01:12:47;;;;;;;;;;;;;;;29.97;64.71;101145.91;5072120;28;66868;-37
2023/12/07 01:15:17;;;;;;;;;;;;;;;29.98;64.67;101153.00;5077671;27;69213;-35
2023/12/07 01:17:46;;;;;;;;;;;;;;;29.99;64.59;101155.47;5060553;28;66834;-35
2023/12/07 01:20:17;;;;;;;;;;;;;;;30.01;63.97;101166.09;5062114;27;70273;-36
2023/12/07 01:22:46;;;;;;;;;;;;;;;30.02;64.19;101165.06;5080451;28;66551;-34
2023/12/07 01:25:21;;;;;;;;;;;;;;;30.02;64.04;101170.47;5063080;27;69808;-35
2023/12/07 01:27:51;;;;;;;;;;;;;;;30.04;63.92;101169.22;5072466;28;66090;-35
2023/12/07 01:30:21;;;;;;;;;;;;;;;30.06;63.73;101169.00;5070821;27;70784;-35
2023/12/07 01:32:51;;;;;;;;;;;;;;;30.07;63.72;101167.97;5066740;28;66204;-35
2023/12/07 01:35:20;;;;;;;;;;;;;;;30.08;63.91;101164.22;5061956;28;70220;-35
2023/12/07 01:37:50;;;;;;;;;;;;;;;30.10;63.65;101169.44;5074645;28;66688;-35
2023/12/07 01:40:19;;;;;;;;;;;;;;;30.11;63.16;101173.78;5060774;28;69724;-35
2023/12/07 01:42:50;;;;;;;;;;;;;;;30.12;63.20;101178.19;5073538;27;65914;-36
2023/12/07 01:45:20;;;;;;;;;;;;;;;30.13;63.27;101179.84;5068095;28;69967;-36
2023/12/07 01:47:52;;;;;;;;;;;;;;;30.14;63.10;101182.31;5069838;27;66024;-36
2023/12/07 01:50:25;;;;;;;;;;;;;;;30.15;63.19;101189.41;5073059;28;68958;-37
2023/12/07 01:53:00;;;;;;;;;;;;;;;30.15;63.36;101192.13;5073209;28;66918;-36
2023/12/07 01:55:30;;;;;;;;;;;;;;;30.19;63.51;101200.66;5069568;28;70667;-35
2023/12/07 01:58:01;;;;;;;;;;;;;;;30.19;62.99;101193.34;5064883;28;66429;-35
2023/12/07 02:00:30;;;;;;;;;;;;;;;30.21;63.08;101195.88;5062749;28;70748;-35
2023/12/07 02:03:02;;;;;;;;;;;;;;;30.23;63.45;101194.66;5066433;27;65320;-37
2023/12/07 02:05:33;;;;;;;;;;;;;;;30.24;62.81;101185.47;5068213;28;69901;-36
2023/12/07 02:08:02;;;;;;;;;;;;;;;30.25;63.16;101170.91;5068859;28;66421;-37
2023/12/07 02:10:32;;;;;;;;;;;;;;;30.27;62.83;101185.06;5071706;27;70431;-36
2023/12/07 02:13:03;;;;;;;;;;;;;;;30.27;63.30;101179.66;5074773;28;66666;-36
2023/12/07 02:15:33;;;;;;;;;;;;;;;30.32;62.93;101180.91;5076835;27;70170;-36
2023/12/07 02:18:21;;;;;;;;;;;;;;;30.33;62.67;101177.16;5067416;28;66850;-35
2023/12/07 02:21:16;;;;;;;;;;;;;;;30.34;63.06;101170.69;5073073;28;69738;-37
2023/12/07 02:23:47;;;;;;;;;;;;;;;30.36;62.71;101160.50;5060599;28;66260;-35
2023/12/07 02:26:21;;;;;;;;;;;;;;;30.38;62.77;101164.66;5067370;27;69213;-35
2023/12/07 02:28:52;;;;;;;;;;;;;;;30.41;63.22;101158.00;5063273;28;65969;-35
2023/12/07 02:31:21;;;;;;;;;;;;;;;30.43;62.84;101150.50;5064677;28;70278;-34
2023/12/07 02:33:51;;;;;;;;;;;;;;;30.44;62.74;101141.31;5071240;28;66247;-36
2023/12/07 02:36:22;;;;;;;;;;;;;;;30.46;62.61;101140.06;5072100;27;70318;-35
2023/12/07 02:38:57;;;;;;;;;;;;;;;30.47;62.57;101147.13;5068144;27;58873;-35
2023/12/07 02:41:27;;;;;;;;;;;;;;;30.51;62.50;101142.16;5059599;27;70607;-34
2023/12/07 02:43:57;;;;;;;;;;;;;;;30.53;62.95;101144.63;5073388;27;65670;-35
2023/12/07 02:46:26;;;;;;;;;;;;;;;30.55;62.48;101154.22;5067415;28;70312;-35
2023/12/07 02:48:57;;;;;;;;;;;;;;;30.56;62.63;101147.75;5073072;27;66036;-35
2023/12/07 02:51:27;;;;;;;;;;;;;;;30.59;62.59;101152.75;5066529;28;70372;-35
2023/12/07 02:53:57;;;;;;;;;;;;;;;30.61;62.47;101141.69;5065272;28;67160;-35
2023/12/07 02:56:27;;;;;;;;;;;;;;;30.62;62.83;101144.22;5066329;27;69932;-35
2023/12/07 02:58:56;;;;;;;;;;;;;;;30.65;62.53;101132.94;5063486;27;66627;-36
2023/12/07 03:01:26;;;;;;;;;;;;;;;30.68;62.39;101131.69;5069607;28;69960;-35
2023/12/07 03:03:56;;;;;;;;;;;;;;;30.70;62.36;101135.84;5074499;27;66119;-35
2023/12/07 03:06:25;;;;;;;;;;;;;;;30.69;62.61;101131.47;5062778;28;70680;-35
2023/12/07 03:08:55;;;;;;;;;;;;;;;30.73;62.36;101130.00;5071157;27;66825;-35
2023/12/07 03:11:25;;;;;;;;;;;;;;;30.76;62.36;101139.59;5059552;28;70176;-36
2023/12/07 03:13:54;;;;;;;;;;;;;;;30.78;62.45;101129.34;5066972;28;66342;-35
2023/12/07 03:16:24;;;;;;;;;;;;;;;30.80;62.68;101121.88;5068557;28;70181;-35
2023/12/07 03:18:54;;;;;;;;;;;;;;;30.84;62.21;101119.56;5072057;27;66887;-35
2023/12/07 03:21:23;;;;;;;;;;;;;;;30.85;62.65;101118.53;5058926;28;70319;-36
2023/12/07 03:23:53;;;;;;;;;;;;;;;30.87;62.35;101114.56;5064114;28;65875;-35
2023/12/07 03:26:22;;;;;;;;;;;;;;;30.92;62.41;101116.63;5057401;28;69912;-34
2023/12/07 03:28:52;;;;;;;;;;;;;;;30.93;62.31;101113.72;5062516;28;66717;-35
2023/12/07 03:31:22;;;;;;;;;;;;;;;30.97;62.36;101113.28;5070774;28;69856;-35
2023/12/07 03:33:52;;;;;;;;;;;;;;;30.99;62.39;101105.78;5059506;28;67429;-36
2023/12/07 03:36:22;;;;;;;;;;;;;;;31.01;62.37;101099.09;5063588;28;70034;-35
2023/12/07 03:38:52;;;;;;;;;;;;;;;31.03;62.24;101099.69;5064542;28;66309;-34
2023/12/07 03:41:21;;;;;;;;;;;;;;;31.05;62.35;101097.59;5058005;28;70611;-35
2023/12/07 03:43:51;;;;;;;;;;;;;;;31.07;62.25;101092.81;5078733;27;67013;-36
2023/12/07 03:46:21;;;;;;;;;;;;;;;31.09;62.30;101079.88;5070115;27;69869;-36
2023/12/07 03:48:51;;;;;;;;;;;;;;;31.12;62.38;101084.00;5063727;28;66291;-36
2023/12/07 03:51:20;;;;;;;;;;;;;;;31.13;61.93;101081.09;5058827;28;70476;-36
2023/12/07 03:53:50;;;;;;;;;;;;;;;31.16;62.28;101064.41;5069601;28;66007;-36
2023/12/07 03:56:26;;;;;;;;;;;;;;;31.20;61.95;101066.66;5058127;27;70114;-34
2023/12/07 03:58:56;;;;;;;;;;;;;;;31.22;62.30;101057.28;5070556;28;66930;-35
2023/12/07 04:01:27;;;;;;;;;;;;;;;31.25;62.04;101061.44;5064584;27;69748;-37
2023/12/07 04:03:59;;;;;;;;;;;;;;;31.26;62.04;101057.66;5078664;27;66513;-35
2023/12/07 04:06:29;;;;;;;;;;;;;;;31.28;62.13;101050.97;5069222;28;70710;-36
2023/12/07 04:08:59;;;;;;;;;;;;;;;31.30;61.90;101043.47;5060919;28;66673;-35
2023/12/07 04:11:28;;;;;;;;;;;;;;;31.33;62.00;101042.19;5062216;28;69935;-35
2023/12/07 04:13:58;;;;;;;;;;;;;;;31.35;61.92;101034.69;5063064;28;66156;-35
2023/12/07 04:16:28;;;;;;;;;;;;;;;31.37;61.84;101027.16;5082640;27;69957;-36
2023/12/07 04:18:58;;;;;;;;;;;;;;;31.40;61.55;101026.75;5071307;28;66830;-35
2023/12/07 04:21:27;;;;;;;;;;;;;;;31.41;61.79;101020.28;5067127;28;70571;-37
2023/12/07 04:23:58;;;;;;;;;;;;;;;31.43;61.88;101020.88;5073411;28;66910;-37
2023/12/07 04:26:27;;;;;;;;;;;;;;;31.44;62.04;101011.69;5063111;28;70660;-37
2023/12/07 04:28:57;;;;;;;;;;;;;;;31.46;61.76;100998.75;5065594;27;65554;-36
2023/12/07 04:31:26;;;;;;;;;;;;;;;31.48;61.70;101002.09;5064208;27;69906;-34
2023/12/07 04:33:56;;;;;;;;;;;;;;;31.52;61.62;100994.31;5061923;28;66576;-35
2023/12/07 04:36:26;;;;;;;;;;;;;;;31.53;61.72;100988.66;5061124;28;69229;-36
2023/12/07 04:38:56;;;;;;;;;;;;;;;31.55;61.80;100980.31;5065901;28;66716;-35
2023/12/07 04:41:26;;;;;;;;;;;;;;;31.57;61.46;100975.50;5068035;28;70895;-41
2023/12/07 04:43:55;;;;;;;;;;;;;;;31.60;61.20;100969.66;5094030;27;66424;-35
2023/12/07 04:46:25;;;;;;;;;;;;;;;31.61;61.25;100966.69;5098585;27;70410;-35
2023/12/07 04:48:55;;;;;;;;;;;;;;;31.64;61.44;100961.88;5081490;27;66137;-36
2023/12/07 04:51:25;;;;;;;;;;;;;;;31.65;61.30;100960.81;5074667;27;70344;-36
2023/12/07 04:53:55;;;;;;;;;;;;;;;31.66;61.50;100954.34;5062353;28;66632;-36
2023/12/07 04:56:41;;;;;;;;;;;;;;;31.68;61.53;100949.53;5066617;28;70805;-36
2023/12/07 04:59:11;;;;;;;;;;;;;;;31.69;61.14;100943.88;5070491;27;66356;-36
2023/12/07 05:01:41;;;;;;;;;;;;;;;31.70;61.60;100934.69;5070756;27;70306;-35
2023/12/07 05:04:11;;;;;;;;;;;;;;;31.71;61.42;100927.41;5071540;27;66862;-35
2023/12/07 05:06:41;;;;;;;;;;;;;;;31.73;61.42;100933.41;5065589;27;69216;-35
2023/12/07 05:09:10;;;;;;;;;;;;;;;31.75;61.36;100931.31;5083396;27;66726;-35
2023/12/07 05:11:40;;;;;;;;;;;;;;;31.76;61.34;100927.53;5068252;27;70636;-36
2023/12/07 05:14:10;;;;;;;;;;;;;;;31.78;61.27;100915.41;5062727;27;66167;-36
2023/12/07 05:16:40;;;;;;;;;;;;;;;31.80;61.28;100907.88;5063440;27;70299;-36
2023/12/07 05:19:10;;;;;;;;;;;;;;;31.81;61.06;100914.94;5063206;28;66117;-35
2023/12/07 05:21:40;;;;;;;;;;;;;;;31.85;61.09;100915.34;5072225;28;70607;-35
2023/12/07 05:24:10;;;;;;;;;;;;;;;31.87;61.18;100907.78;5065742;28;66276;-35
2023/12/07 05:26:43;;;;;;;;;;;;;;;31.89;60.87;100911.13;5069802;28;69861;-35
2023/12/07 05:29:13;;;;;;;;;;;;;;;31.92;61.12;100899.00;5061802;28;66160;-37
2023/12/07 05:31:43;;;;;;;;;;;;;;;31.92;61.08;100897.13;5072321;27;70471;-36
2023/12/07 05:34:13;;;;;;;;;;;;;;;31.95;61.00;100893.94;5062884;27;66852;-35
2023/12/07 05:36:43;;;;;;;;;;;;;;;31.97;60.85;100889.13;5062999;28;70392;-37
2023/12/07 05:39:13;;;;;;;;;;;;;;;32.00;60.73;100875.13;5064437;28;65461;-37
2023/12/07 05:41:43;;;;;;;;;;;;;;;32.02;60.53;100873.00;5075049;28;70347;-42
2023/12/07 05:44:14;;;;;;;;;;;;;;;32.04;60.90;100872.78;5065511;28;66739;-35
2023/12/07 05:46:44;;;;;;;;;;;;;;;32.07;60.64;100866.06;5066583;27;69770;-35
2023/12/07 05:49:14;;;;;;;;;;;;;;;32.09;60.71;100864.78;5069056;27;67018;-35
2023/12/07 05:51:44;;;;;;;;;;;;;;;32.11;60.51;100849.09;5066986;27;70052;-35
2023/12/07 05:54:13;;;;;;;;;;;;;;;32.15;60.58;100852.16;5064138;27;66352;-35
2023/12/07 05:56:44;;;;;;;;;;;;;;;32.16;60.54;100835.66;5067883;27;70122;-35
2023/12/07 05:59:14;;;;;;;;;;;;;;;32.18;60.61;100830.00;5066475;28;66062;-37
2023/12/07 06:01:44;;;;;;;;;;;;;;;32.20;60.65;100831.41;5064610;28;70223;-35
2023/12/07 06:04:15;;;;;;;;;;;;;;;32.23;60.53;100824.72;5072937;27;66006;-35
2023/12/07 06:06:46;;;;;;;;;;;;;;;32.24;60.30;100815.53;5058782;28;70358;-37
2023/12/07 06:09:15;;;;;;;;;;;;;;;32.26;60.52;100816.94;5074619;27;66089;-35
2023/12/07 06:11:45;;;;;;;;;;;;;;;32.28;60.07;100811.28;5049601;28;69156;-37
2023/12/07 06:14:15;;;;;;;;;;;;;;;32.28;60.49;100803.94;5074634;27;66997;-36
2023/12/07 06:16:44;;;;;;;;;;;;;;;32.31;60.18;100802.66;5075012;27;69083;-37
2023/12/07 06:19:14;;;;;;;;;;;;;;;32.34;60.33;100804.91;5068840;27;67074;-35
2023/12/07 06:21:44;;;;;;;;;;;;;;;32.35;60.14;100795.72;5057340;28;69965;-36
2023/12/07 06:24:14;;;;;;;;;;;;;;;32.37;59.96;100792.75;5060606;28;66668;-36
2023/12/07 06:26:44;;;;;;;;;;;;;;;32.39;60.15;100779.78;5067406;28;69696;-36
2023/12/07 06:29:13;;;;;;;;;;;;;;;32.40;60.12;100776.84;5064378;27;65529;-35
2023/12/07 06:31:44;;;;;;;;;;;;;;;32.43;60.11;100781.81;5061418;27;70787;-36
2023/12/07 06:34:13;;;;;;;;;;;;;;;32.41;60.04;100773.06;5072621;28;66578;-36
2023/12/07 06:36:43;;;;;;;;;;;;;;;32.47;60.11;100766.72;5059442;28;69845;-36
2023/12/07 06:39:14;;;;;;;;;;;;;;;32.47;59.80;100758.59;5062713;28;65641;-36
2023/12/07 06:41:44;;;;;;;;;;;;;;;32.50;59.93;100762.72;5079804;28;69153;-35
2023/12/07 06:44:14;;;;;;;;;;;;;;;32.52;59.97;100757.91;5068032;28;66402;-36
2023/12/07 06:46:43;;;;;;;;;;;;;;;32.55;59.79;100757.44;5073581;28;70279;-36
2023/12/07 06:49:13;;;;;;;;;;;;;;;32.57;59.75;100749.03;5060182;27;65947;-36
2023/12/07 06:51:43;;;;;;;;;;;;;;;32.59;59.70;100744.19;5058458;28;70778;-35
2023/12/07 06:54:13;;;;;;;;;;;;;;;32.61;59.89;100739.38;5071556;27;66666;-36
2023/12/07 06:56:43;;;;;;;;;;;;;;;32.63;59.67;100745.41;5059097;28;70868;-36
2023/12/07 06:59:13;;;;;;;;;;;;;;;32.65;59.49;100740.53;5057900;28;66660;-35
2023/12/07 07:01:43;;;;;;;;;;;;;;;32.67;59.61;100732.97;5067756;28;70787;-34
2023/12/07 07:04:13;;;;;;;;;;;;;;;32.69;59.48;100730.88;5064809;28;66014;-35
2023/12/07 07:06:46;;;;;;;;;;;;;;;32.71;59.63;100720.59;5058996;28;71022;-36
2023/12/07 07:09:15;;;;;;;;;;;;;;;32.72;59.45;100720.34;5068688;27;65740;-36
2023/12/07 07:11:48;;;;;;;;;;;;;;;32.75;59.58;100719.03;5064783;27;70731;-36
2023/12/07 07:14:18;;;;;;;;;;;;;;;32.76;59.23;100709.81;5057569;28;66913;-36
2023/12/07 07:16:48;;;;;;;;;;;;;;;32.79;59.14;100708.53;5074257;28;70664;-36
2023/12/07 07:19:18;;;;;;;;;;;;;;;32.81;59.13;100718.09;5067002;27;66617;-36
2023/12/07 07:21:48;;;;;;;;;;;;;;;32.82;59.06;100703.47;5064504;27;70511;-36
2023/12/07 07:24:17;;;;;;;;;;;;;;;32.85;59.42;100703.00;5062065;28;66843;-37
2023/12/07 07:26:47;;;;;;;;;;;;;;;32.87;59.36;100700.84;5059916;28;70275;-35
2023/12/07 07:29:17;;;;;;;;;;;;;;;32.89;59.27;100698.72;5067104;28;66312;-35
2023/12/07 07:31:47;;;;;;;;;;;;;;;32.92;59.19;100703.66;5061176;27;70123;-37
2023/12/07 07:34:17;;;;;;;;;;;;;;;32.94;58.93;100685.25;5072061;28;66948;-35
2023/12/07 07:36:46;;;;;;;;;;;;;;;32.98;59.07;100688.31;5066574;27;70065;-36
2023/12/07 07:39:17;;;;;;;;;;;;;;;33.01;58.98;100692.47;5073098;27;67121;-36
2023/12/07 07:41:47;;;;;;;;;;;;;;;33.05;58.83;100691.75;5078841;28;70370;-40
2023/12/07 07:44:18;;;;;;;;;;;;;;;33.07;58.81;100689.63;5071960;28;67180;-36
2023/12/07 07:46:47;;;;;;;;;;;;;;;33.11;58.96;100698.13;5074865;28;70415;-36
2023/12/07 07:49:17;;;;;;;;;;;;;;;33.14;58.99;100694.91;5066080;28;65990;-37
2023/12/07 07:51:46;;;;;;;;;;;;;;;33.17;58.91;100685.47;5082335;27;70433;-35
2023/12/07 07:54:16;;;;;;;;;;;;;;;33.19;59.07;100683.34;5074329;28;66557;-36
2023/12/07 07:56:46;;;;;;;;;;;;;;;33.21;59.00;100684.75;5067895;28;69696;-36
2023/12/07 07:59:16;;;;;;;;;;;;;;;33.24;58.82;100687.00;5065396;28;66441;-36
2023/12/07 08:01:49;;;;;;;;;;;;;;;33.27;59.01;100694.66;5066193;28;69912;-36
2023/12/07 08:04:19;;;;;;;;;;;;;;;33.29;58.85;100687.09;5064279;28;67483;-36
2023/12/07 08:06:48;;;;;;;;;;;;;;;33.33;58.85;100693.69;5066297;28;71042;-36
2023/12/07 08:09:18;;;;;;;;;;;;;;;33.35;58.84;100688.84;5065898;28;66731;-36
2023/12/07 08:11:47;;;;;;;;;;;;;;;33.36;58.71;100698.63;5076415;28;70532;-36
2023/12/07 08:14:17;;;;;;;;;;;;;;;33.42;58.93;100691.41;5071166;28;65929;-36
2023/12/07 08:16:47;;;;;;;;;;;;;;;33.46;58.89;100708.06;5084704;27;69791;-35
2023/12/07 08:19:17;;;;;;;;;;;;;;;33.47;58.61;100704.28;5071451;28;67114;-36
2023/12/07 08:21:46;;;;;;;;;;;;;;;33.49;58.60;100707.56;5065264;28;70080;-36
2023/12/07 08:24:16;;;;;;;;;;;;;;;33.51;58.69;100702.72;5069548;28;65256;-36
2023/12/07 08:26:45;;;;;;;;;;;;;;;33.54;58.45;100707.69;5072552;27;68985;-35
2023/12/07 08:29:15;;;;;;;;;;;;;;;33.55;58.62;100714.81;5075568;27;66292;-35
2023/12/07 08:31:46;;;;;;;;;;;;;;;33.57;58.31;100715.38;5073079;27;70592;-36
2023/12/07 08:34:17;;;;;;;;;;;;;;;33.60;58.42;100720.34;5073889;28;66367;-36
2023/12/07 08:36:50;;;;;;;;;;;;;;;33.63;58.33;100719.00;5069932;28;70051;-36
2023/12/07 08:39:20;;;;;;;;;;;;;;;33.65;58.69;100723.13;5066443;27;66661;-35
2023/12/07 08:41:50;;;;;;;;;;;;;;;33.68;58.23;100717.22;5076006;28;70142;-36
2023/12/07 08:44:20;;;;;;;;;;;;;;;33.70;58.60;100720.53;5066020;27;65545;-36
2023/12/07 08:46:49;;;;;;;;;;;;;;;33.72;58.26;100717.56;5076907;28;70930;-36
2023/12/07 08:49:19;;;;;;;;;;;;;;;33.74;58.19;100724.41;5060624;28;66859;-37
2023/12/07 08:51:49;;;;;;;;;;;;;;;33.77;58.14;100729.38;5071193;28;69242;-36
2023/12/07 08:54:39;;;;;;;;;;;;;;;33.79;58.07;100724.53;5066985;28;66601;-36
2023/12/07 08:57:08;;;;;;;;;;;;;;;33.83;58.37;100724.03;5064684;28;70658;-36
2023/12/07 08:59:38;;;;;;;;;;;;;;;33.83;58.07;100718.59;5066174;28;67132;-37
2023/12/07 09:02:08;;;;;;;;;;;;;;;33.86;58.25;100715.38;5068304;28;69763;-37
2023/12/07 09:04:39;;;;;;;;;;;;;;;33.88;58.19;100718.66;5072495;28;67293;-35
2023/12/07 09:07:11;;;;;;;;;;;;;;;33.88;58.12;100726.81;5071785;27;70170;-36
2023/12/07 09:09:46;;;;;;;;;;;;;;;33.87;57.67;100725.19;5065103;28;65968;-35
2023/12/07 09:12:16;;;;;;;;;;;;;;;33.89;58.25;100723.03;5061650;28;70952;-35
2023/12/07 09:14:55;;;;;;;;;;;;;;;33.88;58.22;100710.50;5064490;28;67473;-35
2023/12/07 09:17:25;;;;;;;;;;;;;;;33.38;60.73;100720.97;5068294;28;70617;-36
2023/12/07 09:19:55;;;;;;;;;;;;;;;33.22;62.04;100729.88;5064323;28;66516;-35
2023/12/07 09:22:25;;;;;;;;;;;;;;;33.07;63.19;100737.69;5066998;28;70306;-35
2023/12/07 09:25:05;;;;;;;;;;;;;;;33.02;63.67;100745.75;5066331;28;66284;-35
2023/12/07 09:27:37;;;;;;;;;;;;;;;32.96;64.44;100743.94;5069721;27;70235;-37
2023/12/07 09:30:10;;;;;;;;;;;;;;;33.01;64.52;100752.25;5068097;28;66307;-36
2023/12/07 09:32:42;;;;;;;;;;;;;;;33.33;63.07;100766.28;5075703;27;69563;-37
2023/12/07 09:35:19;;;;;;;;;;;;;;;33.44;62.83;100764.59;5068986;28;65348;-36
2023/12/07 09:37:49;;;;;;;;;;;;;;;33.53;62.37;100774.03;5077817;28;69809;-37
2023/12/07 09:40:20;;;;;;;;;;;;;;;33.57;62.22;100765.19;5071287;27;65437;-37
2023/12/07 09:42:50;;;;;;;;;;;;;;;33.56;62.53;100784.44;5068421;28;70048;-37
2023/12/07 09:45:21;;;;;;;;;;;;;;;33.58;62.43;100788.56;5082620;27;65955;-35
2023/12/07 09:47:53;;;;;;;;;;;;;;;33.62;62.70;100782.66;5082779;27;70799;-36
2023/12/07 09:50:24;;;;;;;;;;;;;;;33.67;62.64;100788.19;5083950;27;66365;-36
2023/12/07 09:52:56;;;;;;;;;;;;;;;33.66;63.04;100792.00;5092551;27;70269;-35
2023/12/07 09:55:30;;;;;;;;;;;;;;;33.70;62.09;100802.13;5074995;27;66883;-37
2023/12/07 09:58:00;;;;;;;;;;;;;;;33.70;62.25;100806.75;5066539;28;68947;-36
2023/12/07 10:00:30;;;;;;;;;;;;;;;33.67;63.02;100801.78;5070465;28;66414;-36
2023/12/07 10:03:00;;;;;;;;;;;;;;;33.66;62.82;100811.84;5071733;28;69799;-36
2023/12/07 10:05:30;;;;;;;;;;;;;;;33.65;62.75;100807.47;5070063;28;66299;-36
2023/12/07 10:08:00;;;;;;;;;;;;;;;33.61;62.85;100814.47;5064557;28;69802;-37
2023/12/07 10:10:29;;;;;;;;;;;;;;;33.60;62.74;100823.69;5069129;27;67563;-37
2023/12/07 10:13:00;;;;;;;;;;;;;;;33.61;62.64;100825.34;5066759;28;70710;-37
2023/12/07 10:15:30;;;;;;;;;;;;;;;33.60;62.96;100829.16;5069400;27;66589;-36
2023/12/07 10:18:00;;;;;;;;;;;;;;;33.63;62.55;100828.66;5069448;28;69882;-37
2023/12/07 10:20:30;;;;;;;;;;;;;;;33.64;62.71;100824.84;5068725;28;67283;-37
2023/12/07 10:23:03;;;;;;;;;;;;;;;33.59;63.21;100833.72;5065439;28;69838;-38
2023/12/07 10:25:36;;;;;;;;;;;;;;;33.61;62.48;100836.22;5072929;27;67035;-37
2023/12/07 10:28:07;;;;;;;;;;;;;;;33.58;62.80;100848.41;5066316;28;70612;-37
2023/12/07 10:30:39;;;;;;;;;;;;;;;33.56;63.13;100849.72;5073524;27;66204;-36
2023/12/07 10:33:13;;;;;;;;;;;;;;;33.54;62.90;100858.13;5057430;28;70089;-37
2023/12/07 10:35:43;;;;;;;;;;;;;;;33.55;62.44;100848.88;5064021;28;66077;-36
2023/12/07 10:38:12;;;;;;;;;;;;;;;33.57;62.49;100856.78;5070231;28;70401;-35
2023/12/07 10:40:42;;;;;;;;;;;;;;;33.55;62.38;100858.94;5059411;28;66563;-35
2023/12/07 10:43:12;;;;;;;;;;;;;;;33.55;62.65;100861.66;5063104;28;70783;-35
2023/12/07 10:45:43;;;;;;;;;;;;;;;33.52;62.97;100876.56;5073947;28;65890;-38
2023/12/07 10:48:14;;;;;;;;;;;;;;;33.48;63.34;100879.97;5059610;28;70374;-36
2023/12/07 10:50:46;;;;;;;;;;;;;;;33.48;62.89;100874.53;5074116;28;66199;-37
2023/12/07 10:53:30;;;;;;;;;;;;;;;33.50;62.55;100877.84;5066409;27;70853;-36
2023/12/07 11:11:57;;;;;;;12.50;7.28;;;;;;;33.38;61.09;100827.00;5034813;28;43837;-41
2023/12/07 11:14:29;;;;;;;13.25;7.43;;;;;;;33.71;61.04;100896.28;4987733;28;70510;-40
2023/12/07 11:16:59;;;;;;;10.95;7.95;;;;;;;33.26;61.09;100838.97;4986136;28;65568;-40
2023/12/07 11:19:32;;;;;;;10.90;7.70;;;;;;;33.32;61.25;100855.16;5010352;28;69898;-41
2023/12/07 11:22:06;;;;;;;10.98;8.07;;;;;;;33.28;63.61;100912.97;4984878;28;66390;-41
2023/12/07 11:24:37;;;;;;;11.32;7.22;;;;;;;33.06;64.04;100915.41;5007392;28;70536;-40
2023/12/07 11:27:07;;;;;;;10.93;7.82;;;;;;;33.24;62.73;100923.47;4995046;28;66259;-40
2023/12/07 11:29:38;;;;;;;10.82;6.60;;;;;;;33.36;62.49;100921.59;4978890;28;69994;-41
2023/12/07 11:32:08;;;;;;;7.75;6.95;;;;;;;33.38;62.20;100924.91;5005853;28;66085;-41
2023/12/07 11:34:48;;;;;;;11.30;6.95;;;;;;;33.43;61.88;100926.06;4999891;28;70585;-41
2023/12/07 11:37:20;;;;;;;8.77;6.55;;;;;;;33.36;61.86;100921.59;4989283;28;64999;-40
2023/12/07 11:39:50;;;;;;;10.02;7.25;;;;;;;33.46;61.77;100945.47;5009722;28;70635;-40
2023/12/07 11:42:20;;;;;;;8.32;7.63;;;;;;;33.49;61.95;100957.75;4992142;28;66183;-40
2023/12/07 11:44:53;;;;;;;8.38;7.53;;;;;;;33.46;62.12;100952.78;5011821;28;69627;-40
2023/12/07 11:47:23;;;;;;;11.07;7.72;;;;;;;33.49;62.19;100957.75;5006226;28;66471;-41
2023/12/07 11:49:54;;;;;;;14.05;7.07;;;;;;;33.11;62.41;100900.06;5003169;28;70417;-40
2023/12/07 11:52:26;;;;;;;11.85;7.43;;;;;;;33.49;62.01;100963.19;4989293;28;67026;-41
2023/12/07 11:54:56;;;;;;;7.95;6.60;;;;;;;33.37;61.97;100944.16;4997885;28;69341;-41
2023/12/07 11:57:26;;;;;;;14.60;8.13;;;;;;;33.29;61.87;100937.19;4986139;28;66225;-39
2023/12/07 11:59:56;;;;;;;18.27;8.50;;;;;;;33.43;61.66;100969.56;5001557;28;69180;-41
2023/12/07 12:02:27;;;;;;;11.75;7.68;;;;;;;33.40;61.71;100976.31;5001908;28;66401;-40
2023/12/07 12:04:58;;;;;;;12.05;7.72;;;;;;;33.43;61.95;100977.72;5005115;28;70864;-40
2023/12/07 12:07:29;;;;;;;8.35;7.32;;;;;;;33.40;62.08;100973.59;4983775;28;66488;-46
2023/12/07 12:10:03;;;;;;;8.98;6.93;;;;;;;33.38;62.04;100979.28;4977800;28;70373;-41
2023/12/07 12:12:33;;;;;;;8.57;7.65;;;;;;;33.31;62.14;100980.44;4953890;28;67342;-40
2023/12/07 12:15:04;;;;;;;9.50;7.55;;;;;;;33.31;62.11;100984.00;4950577;28;69931;-41
2023/12/07 12:17:35;;;;;;;11.93;8.25;;;;;;;33.34;62.14;101004.44;4964555;28;66816;-43
2023/12/07 12:20:07;;;;;;;11.43;7.75;;;;;;;33.30;62.11;100993.22;4964055;28;69920;-40
2023/12/07 12:22:37;;;;;;;;;;;;;;;33.05;63.92;101006.19;4963755;28;65986;-40
2023/12/07 12:25:08;;;;;;;10.43;8.18;;;;;;;33.29;62.34;101012.47;4936045;28;70061;-40
2023/12/07 12:27:39;;;;;;;11.50;8.55;;;;;;;33.26;62.01;101011.03;4944361;28;66026;-40
2023/12/07 12:30:10;;;;;;;13.70;8.45;;;;;;;33.24;62.53;101010.47;4963391;28;69639;-41
2023/12/07 12:32:44;;;;;;;12.38;8.98;;;;;;;33.07;62.12;100990.44;4970283;28;64224;-41
2023/12/07 12:35:15;;;;;;;10.40;8.60;;;;;;;33.25;62.00;101017.56;4964062;28;70809;-41
2023/12/07 12:37:47;;;;;;;13.18;8.23;;;;;;;33.25;62.25;101023.00;4964378;28;65653;-40
2023/12/07 12:40:19;;;;;;;14.48;8.40;;;;;;;33.18;62.12;101016.81;4970533;28;69143;-40
2023/12/07 12:42:51;;;;;;;12.82;7.75;;;;;;;32.87;62.14;100974.41;4969597;28;65186;-41
2023/12/07 12:45:25;;;;;;;13.23;8.77;;;;;;;33.15;62.56;101020.00;4969570;28;70335;-40
2023/12/07 12:47:56;;;;;;;13.00;8.80;;;;;;;32.89;62.44;100983.16;4970182;28;66292;-40
2023/12/07 12:50:39;;;;;;;16.73;8.88;;;;;;;33.10;62.69;101031.59;4969503;28;70250;-40
2023/12/07 12:53:11;;;;;;;17.00;8.65;;;;;;;33.11;62.60;101027.81;4969572;28;66471;-40
2023/12/07 12:55:42;;;;;;;19.63;9.02;;;;;;;33.09;62.85;101045.41;4939581;28;69162;-42
2023/12/07 12:58:14;;;;;;;11.00;8.80;;;;;;;33.11;62.59;101048.72;4935551;28;64538;-40